sensor_id;sensor_type;location;lat;lon;timestamp;P1;durP1;ratioP1;P2;durP2;ratioP2
63217;SDS011;49314;48.278;16.378;2023-05-31T00:00:49;7.97;;;7.32;;
63217;SDS011;49314;48.278;16.378;2023-05-31T00:03:15;7.20;;;6.60;;
63217;SDS011;49314;48.278;16.378;2023-05-31T00:05:40;4.45;;;4.05;;
63217;SDS011;49314;48.278;16.378;2023-05-31T00:08:05;8.73;;;7.93;;
63217;SDS011;49314;48.278;16.378;2023-05-31T00:10:31;8.73;;;6.32;;
63217;SDS011;49314;48.278;16.378;2023-05-31T00:12:56;6.00;;;5.57;;
63217;SDS011;49314;48.278;16.378;2023-05-31T00:15:21;9.57;;;8.33;;
63217;SDS011;49314;48.278;16.378;2023-05-31T00:17:46;8.73;;;8.10;;
63217;SDS011;49314;48.278;16.378;2023-05-31T00:20:12;8.60;;;8.00;;
63217;SDS011;49314;48.278;16.378;2023-05-31T00:22:37;7.55;;;7.00;;
63217;SDS011;49314;48.278;16.378;2023-05-31T00:25:03;7.05;;;5.93;;
63217;SDS011;49314;48.278;16.378;2023-05-31T00:27:28;8.65;;;7.93;;
63217;SDS011;49314;48.278;16.378;2023-05-31T00:29:53;9.10;;;7.00;;
63217;SDS011;49314;48.278;16.378;2023-05-31T00:32:18;9.65;;;5.25;;
63217;SDS011;49314;48.278;16.378;2023-05-31T00:34:44;7.32;;;6.60;;
63217;SDS011;49314;48.278;16.378;2023-05-31T00:37:09;6.47;;;5.97;;
63217;SDS011;49314;48.278;16.378;2023-05-31T00:39:34;7.90;;;7.13;;
63217;SDS011;49314;48.278;16.378;2023-05-31T00:41:59;8.00;;;7.30;;
63217;SDS011;49314;48.278;16.378;2023-05-31T00:44:25;7.00;;;6.32;;
63217;SDS011;49314;48.278;16.378;2023-05-31T00:46:50;8.00;;;7.40;;
63217;SDS011;49314;48.278;16.378;2023-05-31T00:49:15;8.57;;;7.45;;
63217;SDS011;49314;48.278;16.378;2023-05-31T00:51:40;7.72;;;6.90;;
63217;SDS011;49314;48.278;16.378;2023-05-31T00:54:06;8.43;;;7.70;;
63217;SDS011;49314;48.278;16.378;2023-05-31T00:56:32;10.32;;;6.15;;
63217;SDS011;49314;48.278;16.378;2023-05-31T00:58:58;8.73;;;7.60;;
63217;SDS011;49314;48.278;16.378;2023-05-31T01:01:23;7.40;;;6.78;;
63217;SDS011;49314;48.278;16.378;2023-05-31T01:03:57;8.73;;;7.80;;
63217;SDS011;49314;48.278;16.378;2023-05-31T01:06:23;6.43;;;5.78;;
63217;SDS011;49314;48.278;16.378;2023-05-31T01:08:49;6.82;;;6.13;;
63217;SDS011;49314;48.278;16.378;2023-05-31T01:16:34;10.63;;;7.45;;
63217;SDS011;49314;48.278;16.378;2023-05-31T01:19:02;8.18;;;7.57;;
63217;SDS011;49314;48.278;16.378;2023-05-31T01:21:32;9.80;;;6.68;;
63217;SDS011;49314;48.278;16.378;2023-05-31T01:24:16;5.32;;;4.82;;
63217;SDS011;49314;48.278;16.378;2023-05-31T01:26:45;7.97;;;7.15;;
63217;SDS011;49314;48.278;16.378;2023-05-31T01:29:13;9.07;;;8.30;;
63217;SDS011;49314;48.278;16.378;2023-05-31T01:31:39;10.02;;;9.15;;
63217;SDS011;49314;48.278;16.378;2023-05-31T01:34:05;8.00;;;7.10;;
63217;SDS011;49314;48.278;16.378;2023-05-31T01:36:30;10.40;;;9.63;;
63217;SDS011;49314;48.278;16.378;2023-05-31T01:38:56;8.80;;;8.10;;
63217;SDS011;49314;48.278;16.378;2023-05-31T01:41:21;7.80;;;7.18;;
63217;SDS011;49314;48.278;16.378;2023-05-31T01:43:48;7.80;;;7.30;;
63217;SDS011;49314;48.278;16.378;2023-05-31T01:46:15;11.20;;;8.75;;
63217;SDS011;49314;48.278;16.378;2023-05-31T01:48:41;13.02;;;8.23;;
63217;SDS011;49314;48.278;16.378;2023-05-31T01:51:08;7.75;;;7.18;;
63217;SDS011;49314;48.278;16.378;2023-05-31T01:53:33;7.28;;;5.75;;
63217;SDS011;49314;48.278;16.378;2023-05-31T01:55:59;9.05;;;8.27;;
63217;SDS011;49314;48.278;16.378;2023-05-31T01:58:24;8.15;;;7.43;;
63217;SDS011;49314;48.278;16.378;2023-05-31T02:00:50;10.05;;;8.98;;
63217;SDS011;49314;48.278;16.378;2023-05-31T02:03:16;8.68;;;7.45;;
63217;SDS011;49314;48.278;16.378;2023-05-31T02:05:56;9.93;;;9.05;;
63217;SDS011;49314;48.278;16.378;2023-05-31T02:08:22;9.43;;;8.77;;
63217;SDS011;49314;48.278;16.378;2023-05-31T02:10:47;9.90;;;9.05;;
63217;SDS011;49314;48.278;16.378;2023-05-31T02:13:12;8.73;;;7.93;;
63217;SDS011;49314;48.278;16.378;2023-05-31T02:15:38;10.00;;;9.25;;
63217;SDS011;49314;48.278;16.378;2023-05-31T02:18:06;9.27;;;8.57;;
63217;SDS011;49314;48.278;16.378;2023-05-31T02:20:31;8.35;;;7.55;;
63217;SDS011;49314;48.278;16.378;2023-05-31T02:22:56;10.73;;;9.77;;
63217;SDS011;49314;48.278;16.378;2023-05-31T02:25:21;7.93;;;7.20;;
63217;SDS011;49314;48.278;16.378;2023-05-31T02:27:47;10.25;;;9.45;;
63217;SDS011;49314;48.278;16.378;2023-05-31T02:30:12;7.93;;;7.28;;
63217;SDS011;49314;48.278;16.378;2023-05-31T02:32:37;9.63;;;8.45;;
63217;SDS011;49314;48.278;16.378;2023-05-31T02:35:07;9.50;;;8.60;;
63217;SDS011;49314;48.278;16.378;2023-05-31T02:37:32;9.40;;;8.77;;
63217;SDS011;49314;48.278;16.378;2023-05-31T02:39:58;9.18;;;8.23;;
63217;SDS011;49314;48.278;16.378;2023-05-31T02:42:23;11.05;;;10.27;;
63217;SDS011;49314;48.278;16.378;2023-05-31T02:44:48;7.30;;;6.25;;
63217;SDS011;49314;48.278;16.378;2023-05-31T02:47:14;9.07;;;8.38;;
63217;SDS011;49314;48.278;16.378;2023-05-31T02:49:39;11.68;;;10.70;;
63217;SDS011;49314;48.278;16.378;2023-05-31T02:52:04;7.93;;;7.28;;
63217;SDS011;49314;48.278;16.378;2023-05-31T02:54:30;8.68;;;8.15;;
63217;SDS011;49314;48.278;16.378;2023-05-31T02:56:55;7.63;;;7.00;;
63217;SDS011;49314;48.278;16.378;2023-05-31T02:59:20;9.57;;;8.77;;
63217;SDS011;49314;48.278;16.378;2023-05-31T03:01:46;7.88;;;7.07;;
63217;SDS011;49314;48.278;16.378;2023-05-31T03:04:11;8.85;;;8.35;;
63217;SDS011;49314;48.278;16.378;2023-05-31T03:06:36;10.38;;;9.75;;
63217;SDS011;49314;48.278;16.378;2023-05-31T03:09:04;10.05;;;9.20;;
63217;SDS011;49314;48.278;16.378;2023-05-31T03:11:30;8.50;;;7.43;;
63217;SDS011;49314;48.278;16.378;2023-05-31T03:13:55;9.07;;;8.30;;
63217;SDS011;49314;48.278;16.378;2023-05-31T03:16:20;10.73;;;8.18;;
63217;SDS011;49314;48.278;16.378;2023-05-31T03:18:45;8.57;;;7.95;;
63217;SDS011;49314;48.278;16.378;2023-05-31T03:21:11;7.82;;;7.20;;
63217;SDS011;49314;48.278;16.378;2023-05-31T03:23:36;8.10;;;7.50;;
63217;SDS011;49314;48.278;16.378;2023-05-31T03:26:01;8.60;;;7.82;;
63217;SDS011;49314;48.278;16.378;2023-05-31T03:28:26;8.60;;;7.87;;
63217;SDS011;49314;48.278;16.378;2023-05-31T03:30:52;10.38;;;9.27;;
63217;SDS011;49314;48.278;16.378;2023-05-31T03:33:17;8.67;;;7.90;;
63217;SDS011;49314;48.278;16.378;2023-05-31T03:35:42;10.27;;;9.43;;
63217;SDS011;49314;48.278;16.378;2023-05-31T03:38:08;8.73;;;8.07;;
63217;SDS011;49314;48.278;16.378;2023-05-31T03:40:33;10.37;;;9.77;;
63217;SDS011;49314;48.278;16.378;2023-05-31T03:42:58;7.13;;;6.60;;
63217;SDS011;49314;48.278;16.378;2023-05-31T03:45:23;10.98;;;10.07;;
63217;SDS011;49314;48.278;16.378;2023-05-31T03:47:49;8.70;;;7.78;;
63217;SDS011;49314;48.278;16.378;2023-05-31T03:50:15;7.22;;;6.20;;
63217;SDS011;49314;48.278;16.378;2023-05-31T03:52:40;10.57;;;9.73;;
63217;SDS011;49314;48.278;16.378;2023-05-31T03:55:05;7.35;;;6.75;;
63217;SDS011;49314;48.278;16.378;2023-05-31T03:57:31;9.65;;;8.85;;
63217;SDS011;49314;48.278;16.378;2023-05-31T03:59:56;9.10;;;8.32;;
63217;SDS011;49314;48.278;16.378;2023-05-31T04:02:21;9.23;;;8.52;;
63217;SDS011;49314;48.278;16.378;2023-05-31T04:04:47;11.23;;;10.43;;
63217;SDS011;49314;48.278;16.378;2023-05-31T04:07:12;10.07;;;9.13;;
63217;SDS011;49314;48.278;16.378;2023-05-31T04:09:37;7.90;;;7.07;;
63217;SDS011;49314;48.278;16.378;2023-05-31T04:12:02;10.88;;;10.07;;
63217;SDS011;49314;48.278;16.378;2023-05-31T04:14:28;8.30;;;7.80;;
63217;SDS011;49314;48.278;16.378;2023-05-31T04:16:53;9.38;;;8.60;;
63217;SDS011;49314;48.278;16.378;2023-05-31T04:19:18;7.20;;;5.88;;
63217;SDS011;49314;48.278;16.378;2023-05-31T04:21:43;9.70;;;8.90;;
63217;SDS011;49314;48.278;16.378;2023-05-31T04:24:09;7.97;;;7.45;;
63217;SDS011;49314;48.278;16.378;2023-05-31T04:26:34;6.30;;;5.78;;
63217;SDS011;49314;48.278;16.378;2023-05-31T04:28:59;7.40;;;6.88;;
63217;SDS011;49314;48.278;16.378;2023-05-31T04:31:25;9.30;;;8.40;;
63217;SDS011;49314;48.278;16.378;2023-05-31T04:33:51;9.18;;;8.35;;
63217;SDS011;49314;48.278;16.378;2023-05-31T04:36:18;9.93;;;8.93;;
63217;SDS011;49314;48.278;16.378;2023-05-31T04:38:44;7.15;;;6.65;;
63217;SDS011;49314;48.278;16.378;2023-05-31T04:41:09;6.97;;;6.32;;
63217;SDS011;49314;48.278;16.378;2023-05-31T04:43:35;7.03;;;6.40;;
63217;SDS011;49314;48.278;16.378;2023-05-31T04:46:00;5.97;;;5.00;;
63217;SDS011;49314;48.278;16.378;2023-05-31T04:48:26;8.20;;;5.93;;
63217;SDS011;49314;48.278;16.378;2023-05-31T04:50:52;7.60;;;6.53;;
63217;SDS011;49314;48.278;16.378;2023-05-31T04:53:20;7.93;;;6.75;;
63217;SDS011;49314;48.278;16.378;2023-05-31T04:55:45;7.65;;;7.00;;
63217;SDS011;49314;48.278;16.378;2023-05-31T04:58:11;8.50;;;6.93;;
63217;SDS011;49314;48.278;16.378;2023-05-31T05:00:36;6.72;;;6.13;;
63217;SDS011;49314;48.278;16.378;2023-05-31T05:03:02;6.40;;;5.93;;
63217;SDS011;49314;48.278;16.378;2023-05-31T05:05:27;8.00;;;6.75;;
63217;SDS011;49314;48.278;16.378;2023-05-31T05:07:52;6.90;;;6.22;;
63217;SDS011;49314;48.278;16.378;2023-05-31T05:10:18;5.83;;;5.20;;
63217;SDS011;49314;48.278;16.378;2023-05-31T05:12:43;6.28;;;5.70;;
63217;SDS011;49314;48.278;16.378;2023-05-31T05:15:08;8.10;;;5.70;;
63217;SDS011;49314;48.278;16.378;2023-05-31T05:17:34;5.13;;;4.63;;
63217;SDS011;49314;48.278;16.378;2023-05-31T05:20:00;7.40;;;6.38;;
63217;SDS011;49314;48.278;16.378;2023-05-31T05:22:25;8.35;;;6.32;;
63217;SDS011;49314;48.278;16.378;2023-05-31T05:24:51;12.68;;;5.13;;
63217;SDS011;49314;48.278;16.378;2023-05-31T05:27:16;5.67;;;5.03;;
63217;SDS011;49314;48.278;16.378;2023-05-31T05:29:41;6.38;;;5.55;;
63217;SDS011;49314;48.278;16.378;2023-05-31T05:32:07;5.07;;;4.57;;
63217;SDS011;49314;48.278;16.378;2023-05-31T05:34:32;6.70;;;4.68;;
63217;SDS011;49314;48.278;16.378;2023-05-31T05:36:58;9.45;;;5.35;;
63217;SDS011;49314;48.278;16.378;2023-05-31T05:39:23;7.05;;;4.30;;
63217;SDS011;49314;48.278;16.378;2023-05-31T05:41:49;9.07;;;5.25;;
63217;SDS011;49314;48.278;16.378;2023-05-31T05:44:14;4.95;;;3.95;;
63217;SDS011;49314;48.278;16.378;2023-05-31T05:46:39;5.05;;;3.75;;
63217;SDS011;49314;48.278;16.378;2023-05-31T05:49:05;6.13;;;4.30;;
63217;SDS011;49314;48.278;16.378;2023-05-31T05:51:30;7.68;;;4.72;;
63217;SDS011;49314;48.278;16.378;2023-05-31T05:53:56;5.80;;;4.78;;
63217;SDS011;49314;48.278;16.378;2023-05-31T05:56:21;7.03;;;3.15;;
63217;SDS011;49314;48.278;16.378;2023-05-31T05:58:46;6.32;;;3.88;;
63217;SDS011;49314;48.278;16.378;2023-05-31T06:01:12;5.53;;;3.78;;
63217;SDS011;49314;48.278;16.378;2023-05-31T06:03:38;7.55;;;4.45;;
63217;SDS011;49314;48.278;16.378;2023-05-31T06:06:03;7.25;;;3.72;;
63217;SDS011;49314;48.278;16.378;2023-05-31T06:08:29;4.90;;;3.65;;
63217;SDS011;49314;48.278;16.378;2023-05-31T06:10:54;8.07;;;4.13;;
63217;SDS011;49314;48.278;16.378;2023-05-31T06:13:19;5.00;;;3.95;;
63217;SDS011;49314;48.278;16.378;2023-05-31T06:15:45;7.73;;;4.73;;
63217;SDS011;49314;48.278;16.378;2023-05-31T06:18:10;5.47;;;4.13;;
63217;SDS011;49314;48.278;16.378;2023-05-31T06:20:35;8.77;;;4.77;;
63217;SDS011;49314;48.278;16.378;2023-05-31T06:23:00;6.90;;;4.03;;
63217;SDS011;49314;48.278;16.378;2023-05-31T06:25:25;5.23;;;3.30;;
63217;SDS011;49314;48.278;16.378;2023-05-31T06:27:51;7.88;;;3.30;;
63217;SDS011;49314;48.278;16.378;2023-05-31T06:30:16;7.32;;;3.30;;
63217;SDS011;49314;48.278;16.378;2023-05-31T06:32:42;8.32;;;3.28;;
63217;SDS011;49314;48.278;16.378;2023-05-31T06:35:07;10.38;;;3.97;;
63217;SDS011;49314;48.278;16.378;2023-05-31T06:37:32;4.40;;;3.00;;
63217;SDS011;49314;48.278;16.378;2023-05-31T06:39:58;6.57;;;3.47;;
63217;SDS011;49314;48.278;16.378;2023-05-31T06:42:23;3.95;;;3.25;;
63217;SDS011;49314;48.278;16.378;2023-05-31T06:44:49;6.10;;;3.65;;
63217;SDS011;49314;48.278;16.378;2023-05-31T06:47:14;8.05;;;4.13;;
63217;SDS011;49314;48.278;16.378;2023-05-31T06:49:39;9.82;;;4.20;;
63217;SDS011;49314;48.278;16.378;2023-05-31T06:52:05;9.98;;;3.90;;
63217;SDS011;49314;48.278;16.378;2023-05-31T06:54:33;7.68;;;3.38;;
63217;SDS011;49314;48.278;16.378;2023-05-31T06:56:58;11.95;;;3.97;;
63217;SDS011;49314;48.278;16.378;2023-05-31T06:59:24;8.93;;;3.83;;
63217;SDS011;49314;48.278;16.378;2023-05-31T07:01:49;5.97;;;4.23;;
63217;SDS011;49314;48.278;16.378;2023-05-31T07:04:17;7.10;;;4.00;;
63217;SDS011;49314;48.278;16.378;2023-05-31T07:06:42;5.85;;;3.53;;
63217;SDS011;49314;48.278;16.378;2023-05-31T07:09:07;7.10;;;3.53;;
63217;SDS011;49314;48.278;16.378;2023-05-31T07:11:33;8.13;;;3.90;;
63217;SDS011;49314;48.278;16.378;2023-05-31T07:13:58;6.53;;;3.67;;
63217;SDS011;49314;48.278;16.378;2023-05-31T07:16:26;9.73;;;4.13;;
63217;SDS011;49314;48.278;16.378;2023-05-31T07:18:52;13.07;;;4.43;;
63217;SDS011;49314;48.278;16.378;2023-05-31T07:21:17;9.27;;;3.97;;
63217;SDS011;49314;48.278;16.378;2023-05-31T07:23:42;6.97;;;3.87;;
63217;SDS011;49314;48.278;16.378;2023-05-31T07:26:07;5.73;;;3.87;;
63217;SDS011;49314;48.278;16.378;2023-05-31T07:28:33;9.37;;;4.30;;
63217;SDS011;49314;48.278;16.378;2023-05-31T07:30:58;9.20;;;4.00;;
63217;SDS011;49314;48.278;16.378;2023-05-31T07:33:23;8.23;;;4.67;;
63217;SDS011;49314;48.278;16.378;2023-05-31T07:35:48;5.18;;;3.60;;
63217;SDS011;49314;48.278;16.378;2023-05-31T07:38:14;7.33;;;3.83;;
63217;SDS011;49314;48.278;16.378;2023-05-31T07:40:39;11.45;;;4.75;;
63217;SDS011;49314;48.278;16.378;2023-05-31T07:43:05;5.90;;;4.40;;
63217;SDS011;49314;48.278;16.378;2023-05-31T07:45:30;7.43;;;3.90;;
63217;SDS011;49314;48.278;16.378;2023-05-31T07:47:56;8.37;;;3.87;;
63217;SDS011;49314;48.278;16.378;2023-05-31T07:50:22;7.68;;;3.97;;
63217;SDS011;49314;48.278;16.378;2023-05-31T07:52:47;6.20;;;4.07;;
63217;SDS011;49314;48.278;16.378;2023-05-31T07:55:14;8.25;;;4.50;;
63217;SDS011;49314;48.278;16.378;2023-05-31T07:57:42;7.10;;;3.30;;
63217;SDS011;49314;48.278;16.378;2023-05-31T08:00:07;9.15;;;3.63;;
63217;SDS011;49314;48.278;16.378;2023-05-31T08:02:34;7.15;;;3.88;;
63217;SDS011;49314;48.278;16.378;2023-05-31T08:04:59;5.88;;;4.95;;
63217;SDS011;49314;48.278;16.378;2023-05-31T08:07:27;8.68;;;4.40;;
63217;SDS011;49314;48.278;16.378;2023-05-31T08:09:52;6.57;;;3.75;;
63217;SDS011;49314;48.278;16.378;2023-05-31T08:12:17;8.63;;;4.43;;
63217;SDS011;49314;48.278;16.378;2023-05-31T08:14:42;6.80;;;4.00;;
63217;SDS011;49314;48.278;16.378;2023-05-31T08:17:08;10.73;;;4.68;;
63217;SDS011;49314;48.278;16.378;2023-05-31T08:19:34;5.00;;;3.63;;
63217;SDS011;49314;48.278;16.378;2023-05-31T08:21:59;7.00;;;3.72;;
63217;SDS011;49314;48.278;16.378;2023-05-31T08:24:25;7.00;;;3.70;;
63217;SDS011;49314;48.278;16.378;2023-05-31T08:26:50;8.50;;;4.05;;
63217;SDS011;49314;48.278;16.378;2023-05-31T08:29:16;4.57;;;3.27;;
63217;SDS011;49314;48.278;16.378;2023-05-31T08:31:41;8.37;;;3.93;;
63217;SDS011;49314;48.278;16.378;2023-05-31T08:34:06;9.27;;;3.63;;
63217;SDS011;49314;48.278;16.378;2023-05-31T08:36:32;8.48;;;4.45;;
63217;SDS011;49314;48.278;16.378;2023-05-31T08:38:57;5.70;;;3.55;;
63217;SDS011;49314;48.278;16.378;2023-05-31T08:41:24;7.30;;;3.67;;
63217;SDS011;49314;48.278;16.378;2023-05-31T08:43:50;7.72;;;3.65;;
63217;SDS011;49314;48.278;16.378;2023-05-31T08:46:15;5.03;;;3.60;;
63217;SDS011;49314;48.278;16.378;2023-05-31T08:48:49;4.67;;;3.80;;
63217;SDS011;49314;48.278;16.378;2023-05-31T08:51:17;7.90;;;3.50;;
63217;SDS011;49314;48.278;16.378;2023-05-31T08:53:43;5.25;;;3.72;;
63217;SDS011;49314;48.278;16.378;2023-05-31T08:56:10;6.68;;;4.10;;
63217;SDS011;49314;48.278;16.378;2023-05-31T08:58:36;8.50;;;4.53;;
63217;SDS011;49314;48.278;16.378;2023-05-31T09:01:02;7.20;;;3.67;;
63217;SDS011;49314;48.278;16.378;2023-05-31T09:03:27;4.90;;;3.10;;
63217;SDS011;49314;48.278;16.378;2023-05-31T09:05:53;5.40;;;3.70;;
63217;SDS011;49314;48.278;16.378;2023-05-31T09:08:19;11.18;;;4.38;;
63217;SDS011;49314;48.278;16.378;2023-05-31T09:10:44;6.57;;;4.10;;
63217;SDS011;49314;48.278;16.378;2023-05-31T09:13:09;5.83;;;3.57;;
63217;SDS011;49314;48.278;16.378;2023-05-31T09:15:35;5.95;;;3.72;;
63217;SDS011;49314;48.278;16.378;2023-05-31T09:18:16;7.82;;;3.65;;
63217;SDS011;49314;48.278;16.378;2023-05-31T09:20:42;3.53;;;3.20;;
63217;SDS011;49314;48.278;16.378;2023-05-31T09:23:07;6.10;;;3.50;;
63217;SDS011;49314;48.278;16.378;2023-05-31T09:25:51;6.43;;;3.80;;
63217;SDS011;49314;48.278;16.378;2023-05-31T09:28:21;7.63;;;3.92;;
63217;SDS011;49314;48.278;16.378;2023-05-31T09:31:05;7.38;;;3.40;;
63217;SDS011;49314;48.278;16.378;2023-05-31T09:33:38;8.15;;;4.30;;
63217;SDS011;49314;48.278;16.378;2023-05-31T09:36:04;6.25;;;3.70;;
63217;SDS011;49314;48.278;16.378;2023-05-31T09:38:33;3.88;;;3.30;;
63217;SDS011;49314;48.278;16.378;2023-05-31T09:43:43;7.07;;;3.92;;
63217;SDS011;49314;48.278;16.378;2023-05-31T09:46:12;6.65;;;3.85;;
63217;SDS011;49314;48.278;16.378;2023-05-31T09:48:37;5.30;;;4.22;;
63217;SDS011;49314;48.278;16.378;2023-05-31T09:51:06;5.68;;;3.78;;
63217;SDS011;49314;48.278;16.378;2023-05-31T09:53:31;5.50;;;4.18;;
63217;SDS011;49314;48.278;16.378;2023-05-31T09:55:57;6.67;;;3.63;;
63217;SDS011;49314;48.278;16.378;2023-05-31T09:58:29;9.30;;;3.90;;
63217;SDS011;49314;48.278;16.378;2023-05-31T10:01:00;7.40;;;3.53;;
63217;SDS011;49314;48.278;16.378;2023-05-31T10:03:29;6.45;;;4.00;;
63217;SDS011;49314;48.278;16.378;2023-05-31T10:05:54;6.65;;;4.07;;
63217;SDS011;49314;48.278;16.378;2023-05-31T10:08:20;6.50;;;3.80;;
63217;SDS011;49314;48.278;16.378;2023-05-31T10:10:46;5.38;;;3.38;;
63217;SDS011;49314;48.278;16.378;2023-05-31T10:13:11;7.90;;;3.60;;
63217;SDS011;49314;48.278;16.378;2023-05-31T10:15:38;6.60;;;3.97;;
63217;SDS011;49314;48.278;16.378;2023-05-31T10:18:09;5.13;;;3.47;;
63217;SDS011;49314;48.278;16.378;2023-05-31T10:20:39;8.57;;;3.93;;
63217;SDS011;49314;48.278;16.378;2023-05-31T10:23:20;3.78;;;3.25;;
63217;SDS011;49314;48.278;16.378;2023-05-31T10:28:11;4.05;;;3.63;;
63217;SDS011;49314;48.278;16.378;2023-05-31T10:30:39;6.30;;;4.03;;
63217;SDS011;49314;48.278;16.378;2023-05-31T10:33:06;9.05;;;4.22;;
63217;SDS011;49314;48.278;16.378;2023-05-31T10:35:32;5.97;;;4.00;;
63217;SDS011;49314;48.278;16.378;2023-05-31T10:37:58;5.45;;;3.70;;
63217;SDS011;49314;48.278;16.378;2023-05-31T10:40:30;10.57;;;4.25;;
63217;SDS011;49314;48.278;16.378;2023-05-31T10:43:07;4.70;;;4.07;;
63217;SDS011;49314;48.278;16.378;2023-05-31T10:48:20;6.28;;;4.22;;
63217;SDS011;49314;48.278;16.378;2023-05-31T10:50:54;7.03;;;4.20;;
63217;SDS011;49314;48.278;16.378;2023-05-31T10:53:20;7.78;;;4.20;;
63217;SDS011;49314;48.278;16.378;2023-05-31T10:55:46;5.15;;;3.95;;
63217;SDS011;49314;48.278;16.378;2023-05-31T11:10:32;6.70;;;4.22;;
63217;SDS011;49314;48.278;16.378;2023-05-31T11:13:02;5.45;;;4.68;;
63217;SDS011;49314;48.278;16.378;2023-05-31T11:15:44;7.13;;;4.28;;
63217;SDS011;49314;48.278;16.378;2023-05-31T11:18:13;7.38;;;3.85;;
63217;SDS011;49314;48.278;16.378;2023-05-31T11:33:15;5.68;;;4.18;;
63217;SDS011;49314;48.278;16.378;2023-05-31T11:35:40;7.32;;;4.63;;
63217;SDS011;49314;48.278;16.378;2023-05-31T11:38:06;8.70;;;4.20;;
63217;SDS011;49314;48.278;16.378;2023-05-31T11:40:32;9.35;;;4.90;;
63217;SDS011;49314;48.278;16.378;2023-05-31T11:43:04;9.82;;;4.13;;
63217;SDS011;49314;48.278;16.378;2023-05-31T11:45:30;5.65;;;4.10;;
63217;SDS011;49314;48.278;16.378;2023-05-31T11:47:59;5.45;;;4.95;;
63217;SDS011;49314;48.278;16.378;2023-05-31T11:50:28;5.35;;;3.83;;
63217;SDS011;49314;48.278;16.378;2023-05-31T11:52:54;7.43;;;4.27;;
63217;SDS011;49314;48.278;16.378;2023-05-31T11:55:20;6.20;;;4.13;;
63217;SDS011;49314;48.278;16.378;2023-05-31T11:57:47;4.93;;;3.75;;
63217;SDS011;49314;48.278;16.378;2023-05-31T12:00:17;9.00;;;4.22;;
63217;SDS011;49314;48.278;16.378;2023-05-31T12:02:45;6.05;;;3.83;;
63217;SDS011;49314;48.278;16.378;2023-05-31T12:05:15;5.90;;;4.03;;
63217;SDS011;49314;48.278;16.378;2023-05-31T12:07:41;5.37;;;4.70;;
63217;SDS011;49314;48.278;16.378;2023-05-31T12:10:06;5.53;;;3.63;;
63217;SDS011;49314;48.278;16.378;2023-05-31T12:12:32;10.20;;;4.28;;
63217;SDS011;49314;48.278;16.378;2023-05-31T12:14:57;6.75;;;4.50;;
63217;SDS011;49314;48.278;16.378;2023-05-31T12:17:23;6.78;;;4.10;;
63217;SDS011;49314;48.278;16.378;2023-05-31T12:19:48;8.13;;;4.50;;
63217;SDS011;49314;48.278;16.378;2023-05-31T12:22:14;5.50;;;4.00;;
63217;SDS011;49314;48.278;16.378;2023-05-31T12:24:49;10.88;;;4.53;;
63217;SDS011;49314;48.278;16.378;2023-05-31T12:27:19;11.77;;;4.30;;
63217;SDS011;49314;48.278;16.378;2023-05-31T12:29:44;7.22;;;4.20;;
63217;SDS011;49314;48.278;16.378;2023-05-31T12:32:09;4.33;;;3.93;;
63217;SDS011;49314;48.278;16.378;2023-05-31T12:34:35;10.03;;;4.43;;
63217;SDS011;49314;48.278;16.378;2023-05-31T12:37:07;4.85;;;4.32;;
63217;SDS011;49314;48.278;16.378;2023-05-31T12:39:33;6.28;;;4.25;;
63217;SDS011;49314;48.278;16.378;2023-05-31T12:41:59;7.55;;;4.13;;
63217;SDS011;49314;48.278;16.378;2023-05-31T12:44:25;5.75;;;4.03;;
63217;SDS011;49314;48.278;16.378;2023-05-31T12:46:51;6.18;;;4.43;;
63217;SDS011;49314;48.278;16.378;2023-05-31T12:51:45;5.38;;;3.70;;
63217;SDS011;49314;48.278;16.378;2023-05-31T12:54:15;6.03;;;4.40;;
63217;SDS011;49314;48.278;16.378;2023-05-31T12:56:42;6.07;;;4.50;;
63217;SDS011;49314;48.278;16.378;2023-05-31T12:59:07;10.23;;;4.15;;
63217;SDS011;49314;48.278;16.378;2023-05-31T13:01:34;4.95;;;4.45;;
63217;SDS011;49314;48.278;16.378;2023-05-31T13:03:59;7.20;;;4.57;;
63217;SDS011;49314;48.278;16.378;2023-05-31T13:06:24;5.13;;;4.37;;
63217;SDS011;49314;48.278;16.378;2023-05-31T13:08:49;6.57;;;4.10;;
63217;SDS011;49314;48.278;16.378;2023-05-31T13:11:15;5.57;;;4.67;;
63217;SDS011;49314;48.278;16.378;2023-05-31T13:13:40;6.67;;;4.50;;
63217;SDS011;49314;48.278;16.378;2023-05-31T13:16:05;7.45;;;4.43;;
63217;SDS011;49314;48.278;16.378;2023-05-31T13:18:31;6.05;;;4.05;;
63217;SDS011;49314;48.278;16.378;2023-05-31T13:20:56;4.63;;;4.13;;
63217;SDS011;49314;48.278;16.378;2023-05-31T13:23:23;7.70;;;3.70;;
63217;SDS011;49314;48.278;16.378;2023-05-31T13:25:49;8.30;;;4.50;;
63217;SDS011;49314;48.278;16.378;2023-05-31T13:31:12;4.88;;;3.72;;
63217;SDS011;49314;48.278;16.378;2023-05-31T13:33:42;6.25;;;4.10;;
63217;SDS011;49314;48.278;16.378;2023-05-31T13:36:09;5.85;;;4.43;;
63217;SDS011;49314;48.278;16.378;2023-05-31T13:38:59;7.05;;;3.75;;
63217;SDS011;49314;48.278;16.378;2023-05-31T13:41:24;4.15;;;3.67;;
63217;SDS011;49314;48.278;16.378;2023-05-31T13:43:49;7.33;;;4.07;;
63217;SDS011;49314;48.278;16.378;2023-05-31T13:46:15;5.38;;;4.32;;
63217;SDS011;49314;48.278;16.378;2023-05-31T13:48:42;4.05;;;3.65;;
63217;SDS011;49314;48.278;16.378;2023-05-31T13:51:08;5.47;;;4.32;;
63217;SDS011;49314;48.278;16.378;2023-05-31T13:53:50;5.78;;;3.75;;
63217;SDS011;49314;48.278;16.378;2023-05-31T13:56:16;12.40;;;4.20;;
63217;SDS011;49314;48.278;16.378;2023-05-31T13:58:41;6.07;;;3.37;;
63217;SDS011;49314;48.278;16.378;2023-05-31T14:01:06;6.75;;;3.85;;
63217;SDS011;49314;48.278;16.378;2023-05-31T14:03:45;5.22;;;3.78;;
63217;SDS011;49314;48.278;16.378;2023-05-31T14:06:11;4.45;;;3.70;;
63217;SDS011;49314;48.278;16.378;2023-05-31T14:11:44;6.15;;;4.47;;
63217;SDS011;49314;48.278;16.378;2023-05-31T14:14:11;3.70;;;3.30;;
63217;SDS011;49314;48.278;16.378;2023-05-31T14:16:37;6.03;;;3.97;;
63217;SDS011;49314;48.278;16.378;2023-05-31T14:19:05;5.32;;;4.75;;
63217;SDS011;49314;48.278;16.378;2023-05-31T14:21:30;7.33;;;4.33;;
63217;SDS011;49314;48.278;16.378;2023-05-31T14:23:58;5.85;;;4.00;;
63217;SDS011;49314;48.278;16.378;2023-05-31T14:29:10;5.65;;;4.38;;
63217;SDS011;49314;48.278;16.378;2023-05-31T14:31:36;5.07;;;4.15;;
63217;SDS011;49314;48.278;16.378;2023-05-31T14:34:02;5.82;;;3.72;;
63217;SDS011;49314;48.278;16.378;2023-05-31T14:36:28;5.55;;;4.32;;
63217;SDS011;49314;48.278;16.378;2023-05-31T14:38:53;11.77;;;4.93;;
63217;SDS011;49314;48.278;16.378;2023-05-31T14:41:18;5.78;;;4.10;;
63217;SDS011;49314;48.278;16.378;2023-05-31T14:43:44;4.68;;;4.00;;
63217;SDS011;49314;48.278;16.378;2023-05-31T14:46:11;5.15;;;4.18;;
63217;SDS011;49314;48.278;16.378;2023-05-31T14:48:36;7.33;;;4.77;;
63217;SDS011;49314;48.278;16.378;2023-05-31T14:51:01;5.95;;;4.55;;
63217;SDS011;49314;48.278;16.378;2023-05-31T14:53:27;7.93;;;4.90;;
63217;SDS011;49314;48.278;16.378;2023-05-31T14:55:58;6.05;;;4.15;;
63217;SDS011;49314;48.278;16.378;2023-05-31T14:58:28;8.98;;;3.97;;
63217;SDS011;49314;48.278;16.378;2023-05-31T15:00:53;4.88;;;3.75;;
63217;SDS011;49314;48.278;16.378;2023-05-31T15:03:19;4.55;;;3.95;;
63217;SDS011;49314;48.278;16.378;2023-05-31T15:05:44;5.32;;;4.07;;
63217;SDS011;49314;48.278;16.378;2023-05-31T15:08:12;5.65;;;4.15;;
63217;SDS011;49314;48.278;16.378;2023-05-31T15:10:37;5.20;;;4.25;;
63217;SDS011;49314;48.278;16.378;2023-05-31T15:13:02;6.03;;;4.05;;
63217;SDS011;49314;48.278;16.378;2023-05-31T15:15:28;7.40;;;4.17;;
63217;SDS011;49314;48.278;16.378;2023-05-31T15:17:53;4.15;;;3.78;;